EPZG/IEG METAR and TAF weather

Enter ICAO airport designator
Station Type Date Time Source
EPZG METAR 2021/03/05 06:00 UTC NOAA

EPZG 050600Z 35004KT 320V030 CAVOK M02/M03 Q1021


Station Type Date Time Source
EPZG Decoded METAR 2021/03/05 06:00 UTC NOAA

Zielona Gora, Poland (EPZG) 51-56N 015-32E 192M
Mar 05, 2021 - 01:00 AM EST / 2021.03.05 0600 UTC
Wind: from the N (350 degrees) at 5 MPH (4 KT) (direction variable):0
Visibility: greater than 7 mile(s):0
Temperature: 28 F (-2 C)
Windchill: 23 F (-5 C):1
Dew Point: 26 F (-3 C)
Relative Humidity: 92%
Pressure (altimeter): 30.15 in. Hg (1021 hPa)
ob: EPZG 050600Z 35004KT 320V030 CAVOK M02/M03 Q1021
cycle: 6

Station Type Date Time Source
EPZG TAF 2012/06/28 21:49 UTC NOAA

TAF EPZG 282000Z 2821/2906 VRB02KT CAVOK
TEMPO 2823/2904 5000 BR PROB30 2900/2904 1500 BR BKN005

Example: see airport list